Peary Spirit — C6YM3 — position and weather

sailwx.info

Track history (hours):
 
Tides and Currents Weather Stations Pressure Air Temp Water Temp Dewpoint Dewpoint Depression Visibility Wind Speed Wind Dir Waves Ship Positions

Peary Spirit

Last reported at 2016-Jun-25 17:33 UTC. Time now 2016-Jun-25 17:49 UTC.
Position N 55°14' W 005°57'.

Length 249 m; draft 14.8 m.

Type: Tanker. MMSI: 311027600.

Date/timePositionNaut miles runAvg speedWind from/ knotsBaromVisibWave heightAir tempDewpointWater temp
2016-Jun-25 17:33N 55°14' W 005°57'10 9.9
2016-Jun-25 16:33N 55°21' W 006°08'1110.8
2016-Jun-25 15:33N 55°25' W 006°26'1111.2
2016-Jun-25 14:33N 55°34' W 006°39'1312.5
2016-Jun-25 13:33N 55°43' W 006°53'  
2016-Jun-17 16:09N 65°10' E 007°11'0 0.4
2016-Jun-17 15:23N 65°10' E 007°12'9 1.5
2016-Jun-17 09:33N 65°01' E 007°09'19210.5
2016-Jun-16 15:09N 62°06' E 004°11'811.6
2016-Jun-16 14:30N 61°58' E 004°11'4611.7
2016-Jun-16 10:33N 61°12' E 004°12'1312.6
2016-Jun-16 09:33N 60°59' E 004°11'1212.5
2016-Jun-16 08:33N 60°47' E 004°11'1515.2
2016-Jun-16 07:33N 60°31' E 004°12'1514.9
2016-Jun-16 06:34N 60°17' E 004°12'1313.0
2016-Jun-16 05:33N 60°04' E 004°13'1313.0
2016-Jun-16 04:33N 59°50' E 004°12'1313.1
2016-Jun-16 03:33N 59°37' E 004°12'1313.1
2016-Jun-16 02:33N 59°24' E 004°12'1313.0
2016-Jun-16 01:33N 59°11' E 004°12'1313.1
2016-Jun-16 00:33N 58°58' E 004°12'1312.5
2016-Jun-15 23:33N 58°46' E 004°03'1212.5
2016-Jun-15 22:33N 58°35' E 003°53'1312.7
2016-Jun-15 21:33N 58°24' E 003°43'1212.4
2016-Jun-15 20:32N 58°12' E 003°34'  
Track history (hours):
 
Tides and Currents Weather Stations Pressure Air Temp Water Temp Dewpoint Dewpoint Depression Visibility Wind Speed Wind Dir Waves Ship Positions

Peary Spirit

Last reported at 2016-Jun-25 17:33 UTC. Time now 2016-Jun-25 17:49 UTC.
Position N 55°14' W 005°57'.

Length 249 m; draft 14.8 m.

Type: Tanker. MMSI: 311027600.

Date/timePositionNaut miles runAvg speedWind from/ knotsBaromVisibWave heightAir tempDewpointWater temp
2016-Jun-25 17:33N 55°14' W 005°57'10 9.9
2016-Jun-25 16:33N 55°21' W 006°08'1110.8
2016-Jun-25 15:33N 55°25' W 006°26'1111.2
2016-Jun-25 14:33N 55°34' W 006°39'1312.5
2016-Jun-25 13:33N 55°43' W 006°53'  
2016-Jun-17 16:09N 65°10' E 007°11'0 0.4
2016-Jun-17 15:23N 65°10' E 007°12'9 1.5
2016-Jun-17 09:33N 65°01' E 007°09'19210.5
2016-Jun-16 15:09N 62°06' E 004°11'811.6
2016-Jun-16 14:30N 61°58' E 004°11'4611.7
2016-Jun-16 10:33N 61°12' E 004°12'1312.6
2016-Jun-16 09:33N 60°59' E 004°11'1212.5
2016-Jun-16 08:33N 60°47' E 004°11'1515.2
2016-Jun-16 07:33N 60°31' E 004°12'1514.9
2016-Jun-16 06:34N 60°17' E 004°12'1313.0
2016-Jun-16 05:33N 60°04' E 004°13'1313.0
2016-Jun-16 04:33N 59°50' E 004°12'1313.1
2016-Jun-16 03:33N 59°37' E 004°12'1313.1
2016-Jun-16 02:33N 59°24' E 004°12'1313.0
2016-Jun-16 01:33N 59°11' E 004°12'1313.1
2016-Jun-16 00:33N 58°58' E 004°12'1312.5
2016-Jun-15 23:33N 58°46' E 004°03'1212.5
2016-Jun-15 22:33N 58°35' E 003°53'1312.7
2016-Jun-15 21:33N 58°24' E 003°43'1212.4
2016-Jun-15 20:32N 58°12' E 003°34'  

Dump ship's entire track history